sensor_id;sensor_type;location;lat;lon;timestamp;P1;durP1;ratioP1;P2;durP2;ratioP2
24799;SDS011;12897;50.812;4.430;2023-05-10T00:02:20;15.98;;;8.90;;
24799;SDS011;12897;50.812;4.430;2023-05-10T00:04:48;21.07;;;9.20;;
24799;SDS011;12897;50.812;4.430;2023-05-10T00:07:17;15.45;;;8.83;;
24799;SDS011;12897;50.812;4.430;2023-05-10T00:09:45;16.87;;;9.08;;
24799;SDS011;12897;50.812;4.430;2023-05-10T00:12:12;20.77;;;8.93;;
24799;SDS011;12897;50.812;4.430;2023-05-10T00:14:40;18.00;;;9.23;;
24799;SDS011;12897;50.812;4.430;2023-05-10T00:17:14;16.85;;;8.18;;
24799;SDS011;12897;50.812;4.430;2023-05-10T00:19:42;17.92;;;9.60;;
24799;SDS011;12897;50.812;4.430;2023-05-10T00:22:09;18.70;;;8.48;;
24799;SDS011;12897;50.812;4.430;2023-05-10T00:24:37;15.45;;;8.93;;
24799;SDS011;12897;50.812;4.430;2023-05-10T00:27:04;22.98;;;9.28;;
24799;SDS011;12897;50.812;4.430;2023-05-10T00:29:32;20.32;;;9.63;;
24799;SDS011;12897;50.812;4.430;2023-05-10T00:32:00;16.67;;;8.68;;
24799;SDS011;12897;50.812;4.430;2023-05-10T00:34:29;15.47;;;9.17;;
24799;SDS011;12897;50.812;4.430;2023-05-10T00:36:56;20.75;;;9.80;;
24799;SDS011;12897;50.812;4.430;2023-05-10T00:39:24;22.13;;;9.40;;
24799;SDS011;12897;50.812;4.430;2023-05-10T00:41:53;22.75;;;11.03;;
24799;SDS011;12897;50.812;4.430;2023-05-10T00:44:21;18.95;;;9.75;;
24799;SDS011;12897;50.812;4.430;2023-05-10T00:46:49;19.35;;;9.60;;
24799;SDS011;12897;50.812;4.430;2023-05-10T00:49:17;20.82;;;10.63;;
24799;SDS011;12897;50.812;4.430;2023-05-10T00:51:45;21.82;;;10.30;;
24799;SDS011;12897;50.812;4.430;2023-05-10T00:54:13;19.57;;;10.00;;
24799;SDS011;12897;50.812;4.430;2023-05-10T00:56:42;21.10;;;10.08;;
24799;SDS011;12897;50.812;4.430;2023-05-10T00:59:11;18.02;;;10.98;;
24799;SDS011;12897;50.812;4.430;2023-05-10T01:01:38;25.75;;;11.73;;
24799;SDS011;12897;50.812;4.430;2023-05-10T01:04:06;22.50;;;11.15;;
24799;SDS011;12897;50.812;4.430;2023-05-10T01:06:35;28.62;;;11.70;;
24799;SDS011;12897;50.812;4.430;2023-05-10T01:09:02;24.50;;;10.82;;
24799;SDS011;12897;50.812;4.430;2023-05-10T01:11:32;18.50;;;10.73;;
24799;SDS011;12897;50.812;4.430;2023-05-10T01:14:04;20.95;;;11.50;;
24799;SDS011;12897;50.812;4.430;2023-05-10T01:16:33;22.15;;;12.13;;
24799;SDS011;12897;50.812;4.430;2023-05-10T01:19:10;23.02;;;11.33;;
24799;SDS011;12897;50.812;4.430;2023-05-10T01:21:38;18.30;;;10.75;;
24799;SDS011;12897;50.812;4.430;2023-05-10T01:32:42;28.32;;;12.00;;
24799;SDS011;12897;50.812;4.430;2023-05-10T01:35:10;23.02;;;12.05;;
24799;SDS011;12897;50.812;4.430;2023-05-10T01:37:58;25.32;;;12.50;;
24799;SDS011;12897;50.812;4.430;2023-05-10T01:41:00;24.25;;;13.25;;
24799;SDS011;12897;50.812;4.430;2023-05-10T01:43:28;24.40;;;12.70;;
24799;SDS011;12897;50.812;4.430;2023-05-10T01:46:00;20.68;;;11.57;;
24799;SDS011;12897;50.812;4.430;2023-05-10T01:48:34;23.47;;;13.08;;
24799;SDS011;12897;50.812;4.430;2023-05-10T01:51:03;23.57;;;12.53;;
24799;SDS011;12897;50.812;4.430;2023-05-10T01:53:32;24.47;;;12.98;;
24799;SDS011;12897;50.812;4.430;2023-05-10T01:56:02;21.33;;;12.93;;
24799;SDS011;12897;50.812;4.430;2023-05-10T02:01:20;26.20;;;12.25;;
24799;SDS011;12897;50.812;4.430;2023-05-10T02:03:49;24.57;;;13.20;;
24799;SDS011;12897;50.812;4.430;2023-05-10T02:06:18;28.83;;;13.25;;
24799;SDS011;12897;50.812;4.430;2023-05-10T02:08:47;26.20;;;13.13;;
24799;SDS011;12897;50.812;4.430;2023-05-10T02:14:08;22.02;;;13.30;;
24799;SDS011;12897;50.812;4.430;2023-05-10T02:16:38;25.27;;;13.75;;
24799;SDS011;12897;50.812;4.430;2023-05-10T02:19:07;23.02;;;12.80;;
24799;SDS011;12897;50.812;4.430;2023-05-10T02:21:37;29.90;;;13.62;;
24799;SDS011;12897;50.812;4.430;2023-05-10T02:26:34;26.23;;;13.55;;
24799;SDS011;12897;50.812;4.430;2023-05-10T02:29:02;24.43;;;13.65;;
24799;SDS011;12897;50.812;4.430;2023-05-10T02:31:32;30.50;;;12.28;;
24799;SDS011;12897;50.812;4.430;2023-05-10T02:34:01;31.80;;;13.67;;
24799;SDS011;12897;50.812;4.430;2023-05-10T02:36:30;21.13;;;12.23;;
24799;SDS011;12897;50.812;4.430;2023-05-10T02:38:59;23.60;;;12.55;;
24799;SDS011;12897;50.812;4.430;2023-05-10T02:41:33;25.88;;;12.23;;
24799;SDS011;12897;50.812;4.430;2023-05-10T02:44:01;23.45;;;12.18;;
24799;SDS011;12897;50.812;4.430;2023-05-10T02:46:31;20.95;;;11.15;;
24799;SDS011;12897;50.812;4.430;2023-05-10T02:48:59;24.07;;;11.85;;
24799;SDS011;12897;50.812;4.430;2023-05-10T02:51:28;27.13;;;12.65;;
24799;SDS011;12897;50.812;4.430;2023-05-10T02:53:58;24.47;;;11.38;;
24799;SDS011;12897;50.812;4.430;2023-05-10T02:56:29;20.48;;;11.45;;
24799;SDS011;12897;50.812;4.430;2023-05-10T02:58:59;22.80;;;11.38;;
24799;SDS011;12897;50.812;4.430;2023-05-10T03:01:26;24.63;;;11.90;;
24799;SDS011;12897;50.812;4.430;2023-05-10T03:03:54;27.67;;;12.58;;
24799;SDS011;12897;50.812;4.430;2023-05-10T03:06:21;21.95;;;11.73;;
24799;SDS011;12897;50.812;4.430;2023-05-10T03:08:49;22.87;;;11.88;;
24799;SDS011;12897;50.812;4.430;2023-05-10T03:17:00;23.62;;;12.33;;
24799;SDS011;12897;50.812;4.430;2023-05-10T03:19:32;24.05;;;12.23;;
24799;SDS011;12897;50.812;4.430;2023-05-10T03:22:03;23.95;;;13.05;;
24799;SDS011;12897;50.812;4.430;2023-05-10T03:24:31;25.27;;;12.20;;
24799;SDS011;12897;50.812;4.430;2023-05-10T03:27:04;27.58;;;13.22;;
24799;SDS011;12897;50.812;4.430;2023-05-10T03:29:33;31.17;;;14.63;;
24799;SDS011;12897;50.812;4.430;2023-05-10T03:32:02;37.98;;;14.55;;
24799;SDS011;12897;50.812;4.430;2023-05-10T03:34:31;32.67;;;15.38;;
24799;SDS011;12897;50.812;4.430;2023-05-10T03:36:59;32.90;;;15.65;;
24799;SDS011;12897;50.812;4.430;2023-05-10T03:39:27;36.15;;;16.70;;
24799;SDS011;12897;50.812;4.430;2023-05-10T03:41:55;37.42;;;18.42;;
24799;SDS011;12897;50.812;4.430;2023-05-10T03:44:22;34.15;;;17.45;;
24799;SDS011;12897;50.812;4.430;2023-05-10T03:46:50;36.93;;;17.92;;
24799;SDS011;12897;50.812;4.430;2023-05-10T03:49:17;38.08;;;18.75;;
24799;SDS011;12897;50.812;4.430;2023-05-10T03:51:46;39.90;;;17.37;;
24799;SDS011;12897;50.812;4.430;2023-05-10T03:54:20;35.13;;;17.55;;
24799;SDS011;12897;50.812;4.430;2023-05-10T03:56:48;38.00;;;18.67;;
24799;SDS011;12897;50.812;4.430;2023-05-10T03:59:15;36.88;;;18.27;;
24799;SDS011;12897;50.812;4.430;2023-05-10T04:01:44;36.77;;;18.25;;
24799;SDS011;12897;50.812;4.430;2023-05-10T04:04:11;39.35;;;18.87;;
24799;SDS011;12897;50.812;4.430;2023-05-10T04:09:26;35.38;;;17.57;;
24799;SDS011;12897;50.812;4.430;2023-05-10T04:11:53;36.28;;;17.57;;
24799;SDS011;12897;50.812;4.430;2023-05-10T04:14:21;42.27;;;19.42;;
24799;SDS011;12897;50.812;4.430;2023-05-10T04:16:48;42.70;;;20.23;;
24799;SDS011;12897;50.812;4.430;2023-05-10T04:22:04;39.58;;;19.12;;
24799;SDS011;12897;50.812;4.430;2023-05-10T04:24:32;43.92;;;20.17;;
24799;SDS011;12897;50.812;4.430;2023-05-10T04:27:01;39.92;;;19.48;;
24799;SDS011;12897;50.812;4.430;2023-05-10T04:29:29;44.77;;;20.37;;
24799;SDS011;12897;50.812;4.430;2023-05-10T04:31:58;48.87;;;20.70;;
24799;SDS011;12897;50.812;4.430;2023-05-10T04:34:25;43.75;;;20.08;;
24799;SDS011;12897;50.812;4.430;2023-05-10T04:36:53;36.98;;;19.27;;
24799;SDS011;12897;50.812;4.430;2023-05-10T04:39:21;42.10;;;20.85;;
24799;SDS011;12897;50.812;4.430;2023-05-10T04:41:48;41.75;;;20.32;;
24799;SDS011;12897;50.812;4.430;2023-05-10T04:44:16;39.92;;;21.35;;
24799;SDS011;12897;50.812;4.430;2023-05-10T04:46:47;42.73;;;21.48;;
24799;SDS011;12897;50.812;4.430;2023-05-10T04:49:14;45.55;;;22.15;;
24799;SDS011;12897;50.812;4.430;2023-05-10T04:51:42;37.78;;;20.45;;
24799;SDS011;12897;50.812;4.430;2023-05-10T04:54:10;36.73;;;19.60;;
24799;SDS011;12897;50.812;4.430;2023-05-10T04:56:37;38.48;;;20.57;;
24799;SDS011;12897;50.812;4.430;2023-05-10T04:59:05;29.63;;;15.13;;
24799;SDS011;12897;50.812;4.430;2023-05-10T05:01:33;27.52;;;15.53;;
24799;SDS011;12897;50.812;4.430;2023-05-10T05:04:00;26.42;;;12.98;;
24799;SDS011;12897;50.812;4.430;2023-05-10T05:06:29;22.07;;;12.10;;
24799;SDS011;12897;50.812;4.430;2023-05-10T05:08:57;24.18;;;12.33;;
24799;SDS011;12897;50.812;4.430;2023-05-10T05:11:24;24.12;;;11.18;;
24799;SDS011;12897;50.812;4.430;2023-05-10T05:13:52;19.07;;;10.13;;
24799;SDS011;12897;50.812;4.430;2023-05-10T05:16:19;24.60;;;10.70;;
24799;SDS011;12897;50.812;4.430;2023-05-10T05:18:47;16.77;;;9.88;;
24799;SDS011;12897;50.812;4.430;2023-05-10T05:21:15;18.62;;;9.73;;
24799;SDS011;12897;50.812;4.430;2023-05-10T05:23:44;21.30;;;11.30;;
24799;SDS011;12897;50.812;4.430;2023-05-10T05:26:12;17.55;;;9.65;;
24799;SDS011;12897;50.812;4.430;2023-05-10T05:28:40;20.27;;;10.70;;
24799;SDS011;12897;50.812;4.430;2023-05-10T05:31:08;30.52;;;14.75;;
24799;SDS011;12897;50.812;4.430;2023-05-10T05:33:36;21.35;;;12.53;;
24799;SDS011;12897;50.812;4.430;2023-05-10T05:36:04;24.40;;;11.88;;
24799;SDS011;12897;50.812;4.430;2023-05-10T05:38:33;21.45;;;11.60;;
24799;SDS011;12897;50.812;4.430;2023-05-10T05:41:01;22.35;;;12.13;;
24799;SDS011;12897;50.812;4.430;2023-05-10T05:43:28;27.00;;;13.05;;
24799;SDS011;12897;50.812;4.430;2023-05-10T05:45:57;22.95;;;12.40;;
24799;SDS011;12897;50.812;4.430;2023-05-10T05:48:25;25.32;;;13.08;;
24799;SDS011;12897;50.812;4.430;2023-05-10T05:50:57;28.00;;;12.78;;
24799;SDS011;12897;50.812;4.430;2023-05-10T05:53:31;19.82;;;11.38;;
24799;SDS011;12897;50.812;4.430;2023-05-10T05:56:01;19.02;;;9.30;;
24799;SDS011;12897;50.812;4.430;2023-05-10T05:58:29;16.02;;;8.13;;
24799;SDS011;12897;50.812;4.430;2023-05-10T06:00:58;14.13;;;7.50;;
24799;SDS011;12897;50.812;4.430;2023-05-10T06:03:26;13.62;;;7.30;;
24799;SDS011;12897;50.812;4.430;2023-05-10T06:05:54;16.95;;;7.60;;
24799;SDS011;12897;50.812;4.430;2023-05-10T06:08:31;13.22;;;5.75;;
24799;SDS011;12897;50.812;4.430;2023-05-10T06:11:04;10.18;;;5.22;;
24799;SDS011;12897;50.812;4.430;2023-05-10T06:13:31;7.55;;;4.78;;
24799;SDS011;12897;50.812;4.430;2023-05-10T06:16:01;10.00;;;5.05;;
24799;SDS011;12897;50.812;4.430;2023-05-10T06:18:31;13.55;;;5.95;;
24799;SDS011;12897;50.812;4.430;2023-05-10T06:20:59;16.10;;;6.25;;
24799;SDS011;12897;50.812;4.430;2023-05-10T06:23:28;15.80;;;6.75;;
24799;SDS011;12897;50.812;4.430;2023-05-10T06:25:55;17.73;;;6.90;;
24799;SDS011;12897;50.812;4.430;2023-05-10T06:28:23;14.30;;;6.70;;
24799;SDS011;12897;50.812;4.430;2023-05-10T06:30:54;10.95;;;6.45;;
24799;SDS011;12897;50.812;4.430;2023-05-10T06:33:23;14.85;;;7.60;;
24799;SDS011;12897;50.812;4.430;2023-05-10T06:35:51;12.15;;;6.47;;
24799;SDS011;12897;50.812;4.430;2023-05-10T06:38:21;17.40;;;7.62;;
24799;SDS011;12897;50.812;4.430;2023-05-10T06:40:51;15.40;;;6.62;;
24799;SDS011;12897;50.812;4.430;2023-05-10T06:43:18;17.17;;;7.37;;
24799;SDS011;12897;50.812;4.430;2023-05-10T06:45:47;10.13;;;6.62;;
24799;SDS011;12897;50.812;4.430;2023-05-10T06:48:15;12.65;;;5.78;;
24799;SDS011;12897;50.812;4.430;2023-05-10T06:50:42;10.80;;;5.60;;
24799;SDS011;12897;50.812;4.430;2023-05-10T06:53:10;7.30;;;5.40;;
24799;SDS011;12897;50.812;4.430;2023-05-10T06:55:40;10.88;;;5.47;;
24799;SDS011;12897;50.812;4.430;2023-05-10T06:58:07;7.03;;;4.50;;
24799;SDS011;12897;50.812;4.430;2023-05-10T07:00:35;6.40;;;3.95;;
24799;SDS011;12897;50.812;4.430;2023-05-10T07:03:04;5.65;;;3.90;;
24799;SDS011;12897;50.812;4.430;2023-05-10T07:05:31;6.45;;;4.35;;
24799;SDS011;12897;50.812;4.430;2023-05-10T07:07:59;9.60;;;5.20;;
24799;SDS011;12897;50.812;4.430;2023-05-10T07:10:27;8.98;;;4.97;;
24799;SDS011;12897;50.812;4.430;2023-05-10T07:12:57;11.97;;;5.15;;
24799;SDS011;12897;50.812;4.430;2023-05-10T07:15:26;10.05;;;5.70;;
24799;SDS011;12897;50.812;4.430;2023-05-10T07:17:54;11.75;;;5.35;;
24799;SDS011;12897;50.812;4.430;2023-05-10T07:20:21;10.25;;;5.87;;
24799;SDS011;12897;50.812;4.430;2023-05-10T07:22:51;14.63;;;5.90;;
24799;SDS011;12897;50.812;4.430;2023-05-10T07:25:18;10.13;;;5.95;;
24799;SDS011;12897;50.812;4.430;2023-05-10T07:27:46;15.60;;;6.85;;
24799;SDS011;12897;50.812;4.430;2023-05-10T07:33:01;17.95;;;8.08;;
24799;SDS011;12897;50.812;4.430;2023-05-10T07:35:29;16.40;;;8.65;;
24799;SDS011;12897;50.812;4.430;2023-05-10T07:37:57;20.68;;;8.20;;
24799;SDS011;12897;50.812;4.430;2023-05-10T07:40:24;14.63;;;8.28;;
24799;SDS011;12897;50.812;4.430;2023-05-10T07:42:52;20.05;;;9.63;;
24799;SDS011;12897;50.812;4.430;2023-05-10T07:45:19;19.48;;;9.00;;
24799;SDS011;12897;50.812;4.430;2023-05-10T07:47:50;20.77;;;9.00;;
24799;SDS011;12897;50.812;4.430;2023-05-10T07:50:17;16.27;;;9.13;;
24799;SDS011;12897;50.812;4.430;2023-05-10T07:52:47;19.50;;;9.43;;
24799;SDS011;12897;50.812;4.430;2023-05-10T07:55:15;19.90;;;9.50;;
24799;SDS011;12897;50.812;4.430;2023-05-10T07:57:44;19.20;;;8.00;;
24799;SDS011;12897;50.812;4.430;2023-05-10T08:00:12;15.93;;;8.15;;
24799;SDS011;12897;50.812;4.430;2023-05-10T08:02:41;16.07;;;9.15;;
24799;SDS011;12897;50.812;4.430;2023-05-10T08:05:09;17.73;;;8.35;;
24799;SDS011;12897;50.812;4.430;2023-05-10T08:07:37;18.37;;;7.65;;
24799;SDS011;12897;50.812;4.430;2023-05-10T08:10:05;11.78;;;6.80;;
24799;SDS011;12897;50.812;4.430;2023-05-10T08:12:33;14.28;;;6.58;;
24799;SDS011;12897;50.812;4.430;2023-05-10T08:15:02;12.55;;;6.87;;
24799;SDS011;12897;50.812;4.430;2023-05-10T08:17:30;14.87;;;6.80;;
24799;SDS011;12897;50.812;4.430;2023-05-10T08:19:59;14.33;;;6.78;;
24799;SDS011;12897;50.812;4.430;2023-05-10T08:22:27;11.78;;;6.50;;
24799;SDS011;12897;50.812;4.430;2023-05-10T08:24:54;10.38;;;5.60;;
24799;SDS011;12897;50.812;4.430;2023-05-10T08:27:22;8.43;;;5.28;;
24799;SDS011;12897;50.812;4.430;2023-05-10T08:29:49;7.45;;;5.65;;
24799;SDS011;12897;50.812;4.430;2023-05-10T08:32:17;10.03;;;5.10;;
24799;SDS011;12897;50.812;4.430;2023-05-10T08:34:45;10.13;;;5.92;;
24799;SDS011;12897;50.812;4.430;2023-05-10T08:37:12;12.70;;;5.87;;
24799;SDS011;12897;50.812;4.430;2023-05-10T08:39:40;8.90;;;4.72;;
24799;SDS011;12897;50.812;4.430;2023-05-10T08:42:08;12.78;;;5.95;;
24799;SDS011;12897;50.812;4.430;2023-05-10T08:44:37;9.98;;;5.08;;
24799;SDS011;12897;50.812;4.430;2023-05-10T08:47:05;8.80;;;4.90;;
24799;SDS011;12897;50.812;4.430;2023-05-10T08:49:33;8.45;;;4.87;;
24799;SDS011;12897;50.812;4.430;2023-05-10T08:52:02;9.83;;;4.78;;
24799;SDS011;12897;50.812;4.430;2023-05-10T08:54:31;8.00;;;5.00;;
24799;SDS011;12897;50.812;4.430;2023-05-10T08:57:01;10.75;;;5.60;;
24799;SDS011;12897;50.812;4.430;2023-05-10T08:59:28;12.88;;;5.80;;
24799;SDS011;12897;50.812;4.430;2023-05-10T09:01:57;8.33;;;5.33;;
24799;SDS011;12897;50.812;4.430;2023-05-10T09:04:26;9.00;;;5.22;;
24799;SDS011;12897;50.812;4.430;2023-05-10T09:06:54;10.00;;;5.55;;
24799;SDS011;12897;50.812;4.430;2023-05-10T09:09:22;10.53;;;5.40;;
24799;SDS011;12897;50.812;4.430;2023-05-10T09:11:51;12.23;;;5.33;;
24799;SDS011;12897;50.812;4.430;2023-05-10T09:14:21;11.85;;;5.53;;
24799;SDS011;12897;50.812;4.430;2023-05-10T09:16:51;8.35;;;4.85;;
24799;SDS011;12897;50.812;4.430;2023-05-10T09:19:20;7.58;;;5.12;;
24799;SDS011;12897;50.812;4.430;2023-05-10T09:21:50;8.18;;;5.25;;
24799;SDS011;12897;50.812;4.430;2023-05-10T09:24:17;7.72;;;5.33;;
24799;SDS011;12897;50.812;4.430;2023-05-10T09:26:45;10.30;;;5.60;;
24799;SDS011;12897;50.812;4.430;2023-05-10T09:29:17;9.48;;;5.35;;
24799;SDS011;12897;50.812;4.430;2023-05-10T09:31:46;7.33;;;5.20;;
24799;SDS011;12897;50.812;4.430;2023-05-10T09:34:17;11.33;;;5.30;;
24799;SDS011;12897;50.812;4.430;2023-05-10T09:37:01;7.12;;;5.17;;
24799;SDS011;12897;50.812;4.430;2023-05-10T09:39:35;11.75;;;5.65;;
24799;SDS011;12897;50.812;4.430;2023-05-10T09:42:06;6.78;;;4.60;;
24799;SDS011;12897;50.812;4.430;2023-05-10T09:44:36;6.12;;;4.30;;
24799;SDS011;12897;50.812;4.430;2023-05-10T09:47:06;6.28;;;4.37;;
24799;SDS011;12897;50.812;4.430;2023-05-10T09:49:34;7.37;;;4.62;;
24799;SDS011;12897;50.812;4.430;2023-05-10T09:52:02;7.03;;;4.20;;
24799;SDS011;12897;50.812;4.430;2023-05-10T09:54:31;7.22;;;4.30;;
24799;SDS011;12897;50.812;4.430;2023-05-10T09:57:00;4.10;;;3.40;;
24799;SDS011;12897;50.812;4.430;2023-05-10T09:59:28;4.55;;;3.55;;
24799;SDS011;12897;50.812;4.430;2023-05-10T10:01:56;6.25;;;3.30;;
24799;SDS011;12897;50.812;4.430;2023-05-10T10:04:26;9.53;;;3.80;;
24799;SDS011;12897;50.812;4.430;2023-05-10T10:07:01;5.20;;;3.27;;
24799;SDS011;12897;50.812;4.430;2023-05-10T10:09:31;5.00;;;3.05;;
24799;SDS011;12897;50.812;4.430;2023-05-10T10:12:05;9.23;;;3.65;;
24799;SDS011;12897;50.812;4.430;2023-05-10T10:14:30;5.05;;;3.00;;
24799;SDS011;12897;50.812;4.430;2023-05-10T10:16:57;4.05;;;2.80;;
24799;SDS011;12897;50.812;4.430;2023-05-10T10:19:27;6.55;;;2.90;;
24799;SDS011;12897;50.812;4.430;2023-05-10T10:21:56;3.15;;;2.62;;
24799;SDS011;12897;50.812;4.430;2023-05-10T10:24:24;3.92;;;2.70;;
24799;SDS011;12897;50.812;4.430;2023-05-10T10:26:52;7.28;;;2.47;;
24799;SDS011;12897;50.812;4.430;2023-05-10T10:29:26;5.92;;;2.55;;
24799;SDS011;12897;50.812;4.430;2023-05-10T10:32:19;6.03;;;3.10;;
24799;SDS011;12897;50.812;4.430;2023-05-10T10:34:57;3.60;;;2.17;;
24799;SDS011;12897;50.812;4.430;2023-05-10T10:37:40;3.77;;;2.30;;
24799;SDS011;12897;50.812;4.430;2023-05-10T10:40:32;3.50;;;2.47;;
24799;SDS011;12897;50.812;4.430;2023-05-10T10:48:50;5.90;;;2.70;;
24799;SDS011;12897;50.812;4.430;2023-05-10T10:51:37;3.75;;;2.65;;
24799;SDS011;12897;50.812;4.430;2023-05-10T10:54:11;3.80;;;2.22;;
24799;SDS011;12897;50.812;4.430;2023-05-10T10:56:39;3.83;;;2.60;;
24799;SDS011;12897;50.812;4.430;2023-05-10T10:59:07;5.42;;;2.67;;
24799;SDS011;12897;50.812;4.430;2023-05-10T11:01:35;5.83;;;2.72;;
24799;SDS011;12897;50.812;4.430;2023-05-10T11:06:35;5.67;;;2.90;;
24799;SDS011;12897;50.812;4.430;2023-05-10T11:09:10;3.77;;;2.90;;
24799;SDS011;12897;50.812;4.430;2023-05-10T11:11:52;3.25;;;2.85;;
24799;SDS011;12897;50.812;4.430;2023-05-10T11:14:24;4.58;;;2.98;;
24799;SDS011;12897;50.812;4.430;2023-05-10T11:16:52;10.25;;;3.27;;
24799;SDS011;12897;50.812;4.430;2023-05-10T11:19:20;4.53;;;3.00;;
24799;SDS011;12897;50.812;4.430;2023-05-10T11:22:11;4.42;;;3.22;;
24799;SDS011;12897;50.812;4.430;2023-05-10T11:24:34;7.95;;;3.12;;
24799;SDS011;12897;50.812;4.430;2023-05-10T11:27:05;3.90;;;3.20;;
24799;SDS011;12897;50.812;4.430;2023-05-10T11:29:32;4.87;;;3.67;;
24799;SDS011;12897;50.812;4.430;2023-05-10T11:32:00;4.97;;;3.62;;
24799;SDS011;12897;50.812;4.430;2023-05-10T11:34:28;6.53;;;2.92;;
24799;SDS011;12897;50.812;4.430;2023-05-10T11:36:59;7.62;;;3.08;;
24799;SDS011;12897;50.812;4.430;2023-05-10T11:39:28;9.10;;;3.72;;
24799;SDS011;12897;50.812;4.430;2023-05-10T11:41:57;5.78;;;3.15;;
24799;SDS011;12897;50.812;4.430;2023-05-10T11:44:29;4.30;;;3.15;;
24799;SDS011;12897;50.812;4.430;2023-05-10T11:46:58;4.55;;;2.85;;
24799;SDS011;12897;50.812;4.430;2023-05-10T11:49:26;5.07;;;3.13;;
24799;SDS011;12897;50.812;4.430;2023-05-10T11:52:03;4.30;;;2.95;;
24799;SDS011;12897;50.812;4.430;2023-05-10T11:54:37;5.97;;;2.87;;
24799;SDS011;12897;50.812;4.430;2023-05-10T11:57:06;4.83;;;3.10;;
24799;SDS011;12897;50.812;4.430;2023-05-10T11:59:33;3.67;;;2.85;;
24799;SDS011;12897;50.812;4.430;2023-05-10T12:02:07;5.47;;;3.45;;
24799;SDS011;12897;50.812;4.430;2023-05-10T12:04:36;5.70;;;3.40;;
24799;SDS011;12897;50.812;4.430;2023-05-10T12:07:05;3.83;;;2.85;;
24799;SDS011;12897;50.812;4.430;2023-05-10T12:09:33;5.42;;;3.30;;
24799;SDS011;12897;50.812;4.430;2023-05-10T12:12:00;5.50;;;2.90;;
24799;SDS011;12897;50.812;4.430;2023-05-10T12:14:29;4.62;;;2.92;;
24799;SDS011;12897;50.812;4.430;2023-05-10T12:17:00;4.67;;;3.17;;
24799;SDS011;12897;50.812;4.430;2023-05-10T12:19:29;4.60;;;2.70;;
24799;SDS011;12897;50.812;4.430;2023-05-10T12:22:04;3.75;;;2.70;;
24799;SDS011;12897;50.812;4.430;2023-05-10T12:24:35;4.95;;;3.42;;
24799;SDS011;12897;50.812;4.430;2023-05-10T12:27:09;3.50;;;2.77;;
24799;SDS011;12897;50.812;4.430;2023-05-10T12:29:41;5.62;;;3.58;;
24799;SDS011;12897;50.812;4.430;2023-05-10T12:32:09;3.90;;;2.95;;
24799;SDS011;12897;50.812;4.430;2023-05-10T12:34:37;5.55;;;3.70;;
24799;SDS011;12897;50.812;4.430;2023-05-10T12:37:06;4.83;;;3.27;;
24799;SDS011;12897;50.812;4.430;2023-05-10T12:39:40;8.10;;;4.53;;
24799;SDS011;12897;50.812;4.430;2023-05-10T12:42:10;5.08;;;3.30;;
24799;SDS011;12897;50.812;4.430;2023-05-10T12:44:38;6.58;;;3.65;;
24799;SDS011;12897;50.812;4.430;2023-05-10T12:47:06;4.75;;;3.60;;
24799;SDS011;12897;50.812;4.430;2023-05-10T12:49:34;4.12;;;3.25;;
24799;SDS011;12897;50.812;4.430;2023-05-10T12:52:01;5.72;;;4.25;;
24799;SDS011;12897;50.812;4.430;2023-05-10T12:54:29;5.45;;;3.72;;
24799;SDS011;12897;50.812;4.430;2023-05-10T12:56:57;4.92;;;3.95;;
24799;SDS011;12897;50.812;4.430;2023-05-10T12:59:24;7.72;;;4.45;;
24799;SDS011;12897;50.812;4.430;2023-05-10T13:01:52;6.97;;;4.30;;
24799;SDS011;12897;50.812;4.430;2023-05-10T13:04:19;5.47;;;3.98;;
24799;SDS011;12897;50.812;4.430;2023-05-10T13:06:47;5.85;;;4.15;;
24799;SDS011;12897;50.812;4.430;2023-05-10T13:09:14;4.92;;;4.05;;
24799;SDS011;12897;50.812;4.430;2023-05-10T13:11:43;7.60;;;4.40;;
24799;SDS011;12897;50.812;4.430;2023-05-10T13:14:11;5.78;;;4.00;;
24799;SDS011;12897;50.812;4.430;2023-05-10T13:16:39;7.75;;;4.78;;
24799;SDS011;12897;50.812;4.430;2023-05-10T13:19:06;10.60;;;5.50;;
24799;SDS011;12897;50.812;4.430;2023-05-10T13:21:34;6.87;;;4.20;;
24799;SDS011;12897;50.812;4.430;2023-05-10T13:24:02;6.12;;;4.62;;
24799;SDS011;12897;50.812;4.430;2023-05-10T13:26:29;7.15;;;4.40;;
24799;SDS011;12897;50.812;4.430;2023-05-10T13:28:58;6.08;;;4.17;;
24799;SDS011;12897;50.812;4.430;2023-05-10T13:31:26;5.62;;;4.45;;
24799;SDS011;12897;50.812;4.430;2023-05-10T13:33:53;8.15;;;4.37;;
24799;SDS011;12897;50.812;4.430;2023-05-10T13:36:21;8.05;;;3.92;;
24799;SDS011;12897;50.812;4.430;2023-05-10T13:38:50;6.25;;;4.08;;
24799;SDS011;12897;50.812;4.430;2023-05-10T13:41:18;8.30;;;4.22;;
24799;SDS011;12897;50.812;4.430;2023-05-10T13:43:46;8.45;;;3.40;;
24799;SDS011;12897;50.812;4.430;2023-05-10T13:46:15;6.42;;;3.52;;
24799;SDS011;12897;50.812;4.430;2023-05-10T13:48:42;6.83;;;3.60;;
24799;SDS011;12897;50.812;4.430;2023-05-10T13:51:10;7.00;;;4.67;;
24799;SDS011;12897;50.812;4.430;2023-05-10T13:53:39;6.92;;;4.28;;
24799;SDS011;12897;50.812;4.430;2023-05-10T13:56:07;11.15;;;4.97;;
24799;SDS011;12897;50.812;4.430;2023-05-10T13:58:36;10.48;;;5.85;;
24799;SDS011;12897;50.812;4.430;2023-05-10T14:01:03;12.40;;;6.35;;
24799;SDS011;12897;50.812;4.430;2023-05-10T14:03:31;10.60;;;6.47;;
24799;SDS011;12897;50.812;4.430;2023-05-10T14:05:59;15.45;;;6.00;;
24799;SDS011;12897;50.812;4.430;2023-05-10T14:08:26;9.48;;;6.90;;
24799;SDS011;12897;50.812;4.430;2023-05-10T14:10:55;11.88;;;7.08;;
24799;SDS011;12897;50.812;4.430;2023-05-10T14:13:25;13.88;;;6.80;;
24799;SDS011;12897;50.812;4.430;2023-05-10T14:18:21;14.07;;;8.13;;
24799;SDS011;12897;50.812;4.430;2023-05-10T14:20:48;12.85;;;8.03;;
24799;SDS011;12897;50.812;4.430;2023-05-10T14:23:16;14.98;;;8.15;;
24799;SDS011;12897;50.812;4.430;2023-05-10T14:25:45;14.90;;;8.73;;
24799;SDS011;12897;50.812;4.430;2023-05-10T14:28:13;14.45;;;9.40;;
24799;SDS011;12897;50.812;4.430;2023-05-10T14:30:42;15.43;;;9.88;;
24799;SDS011;12897;50.812;4.430;2023-05-10T14:33:10;16.00;;;10.50;;
24799;SDS011;12897;50.812;4.430;2023-05-10T14:35:38;13.70;;;9.50;;
24799;SDS011;12897;50.812;4.430;2023-05-10T14:38:06;15.83;;;9.70;;
24799;SDS011;12897;50.812;4.430;2023-05-10T14:40:36;12.65;;;9.35;;
24799;SDS011;12897;50.812;4.430;2023-05-10T14:43:04;19.50;;;9.90;;
24799;SDS011;12897;50.812;4.430;2023-05-10T14:45:31;13.53;;;9.63;;
24799;SDS011;12897;50.812;4.430;2023-05-10T14:47:59;18.92;;;10.80;;
24799;SDS011;12897;50.812;4.430;2023-05-10T14:50:29;17.95;;;10.18;;
24799;SDS011;12897;50.812;4.430;2023-05-10T14:52:57;18.75;;;11.22;;
24799;SDS011;12897;50.812;4.430;2023-05-10T14:55:25;14.85;;;10.23;;
24799;SDS011;12897;50.812;4.430;2023-05-10T14:57:52;17.85;;;11.15;;
24799;SDS011;12897;50.812;4.430;2023-05-10T15:00:20;21.00;;;11.78;;
24799;SDS011;12897;50.812;4.430;2023-05-10T15:02:48;19.48;;;10.25;;
24799;SDS011;12897;50.812;4.430;2023-05-10T15:05:15;19.02;;;11.40;;
24799;SDS011;12897;50.812;4.430;2023-05-10T15:07:43;19.23;;;12.18;;
24799;SDS011;12897;50.812;4.430;2023-05-10T15:10:11;17.77;;;11.97;;
24799;SDS011;12897;50.812;4.430;2023-05-10T15:12:40;19.45;;;10.60;;
24799;SDS011;12897;50.812;4.430;2023-05-10T15:15:08;20.62;;;10.60;;
24799;SDS011;12897;50.812;4.430;2023-05-10T15:17:35;17.87;;;9.93;;
24799;SDS011;12897;50.812;4.430;2023-05-10T15:20:03;18.52;;;8.60;;
24799;SDS011;12897;50.812;4.430;2023-05-10T15:22:31;11.40;;;6.65;;
24799;SDS011;12897;50.812;4.430;2023-05-10T15:24:59;12.30;;;4.70;;
24799;SDS011;12897;50.812;4.430;2023-05-10T15:27:27;13.58;;;5.20;;